sensor_id;sensor_type;location;lat;lon;timestamp;P1;durP1;ratioP1;P2;durP2;ratioP2
8247;SDS011;4164;49.844;8.830;2023-02-01T00:01:19;8.57;;;5.13;;
8247;SDS011;4164;49.844;8.830;2023-02-01T00:03:45;8.60;;;5.00;;
8247;SDS011;4164;49.844;8.830;2023-02-01T00:06:10;7.73;;;4.30;;
8247;SDS011;4164;49.844;8.830;2023-02-01T00:08:39;6.67;;;4.93;;
8247;SDS011;4164;49.844;8.830;2023-02-01T00:11:08;11.37;;;4.37;;
8247;SDS011;4164;49.844;8.830;2023-02-01T00:13:36;5.87;;;4.20;;
8247;SDS011;4164;49.844;8.830;2023-02-01T00:16:05;6.57;;;4.30;;
8247;SDS011;4164;49.844;8.830;2023-02-01T00:18:31;4.83;;;4.10;;
8247;SDS011;4164;49.844;8.830;2023-02-01T00:20:57;5.50;;;4.80;;
8247;SDS011;4164;49.844;8.830;2023-02-01T00:23:23;6.93;;;4.00;;
8247;SDS011;4164;49.844;8.830;2023-02-01T00:25:49;7.70;;;4.67;;
8247;SDS011;4164;49.844;8.830;2023-02-01T00:28:15;5.50;;;4.40;;
8247;SDS011;4164;49.844;8.830;2023-02-01T00:30:40;6.23;;;4.03;;
8247;SDS011;4164;49.844;8.830;2023-02-01T00:33:06;5.40;;;3.93;;
8247;SDS011;4164;49.844;8.830;2023-02-01T00:35:34;4.40;;;3.97;;
8247;SDS011;4164;49.844;8.830;2023-02-01T00:38:00;7.93;;;4.10;;
8247;SDS011;4164;49.844;8.830;2023-02-01T00:40:26;7.67;;;4.73;;
8247;SDS011;4164;49.844;8.830;2023-02-01T00:42:51;6.93;;;4.37;;
8247;SDS011;4164;49.844;8.830;2023-02-01T00:45:17;7.17;;;4.40;;
8247;SDS011;4164;49.844;8.830;2023-02-01T00:47:43;7.20;;;4.27;;
8247;SDS011;4164;49.844;8.830;2023-02-01T00:50:09;8.57;;;4.90;;
8247;SDS011;4164;49.844;8.830;2023-02-01T00:52:35;6.70;;;4.63;;
8247;SDS011;4164;49.844;8.830;2023-02-01T00:55:00;7.37;;;5.27;;
8247;SDS011;4164;49.844;8.830;2023-02-01T00:57:26;6.43;;;5.23;;
8247;SDS011;4164;49.844;8.830;2023-02-01T00:59:52;6.97;;;5.10;;
8247;SDS011;4164;49.844;8.830;2023-02-01T01:02:17;10.13;;;5.90;;
8247;SDS011;4164;49.844;8.830;2023-02-01T01:04:43;11.17;;;6.63;;
8247;SDS011;4164;49.844;8.830;2023-02-01T01:07:08;10.90;;;6.60;;
8247;SDS011;4164;49.844;8.830;2023-02-01T01:09:34;8.00;;;6.37;;
8247;SDS011;4164;49.844;8.830;2023-02-01T01:12:00;11.20;;;8.03;;
8247;SDS011;4164;49.844;8.830;2023-02-01T01:14:27;9.80;;;6.90;;
8247;SDS011;4164;49.844;8.830;2023-02-01T01:16:54;12.60;;;8.10;;
8247;SDS011;4164;49.844;8.830;2023-02-01T01:19:19;14.23;;;7.07;;
8247;SDS011;4164;49.844;8.830;2023-02-01T01:21:45;13.27;;;7.77;;
8247;SDS011;4164;49.844;8.830;2023-02-01T01:24:10;10.63;;;6.93;;
8247;SDS011;4164;49.844;8.830;2023-02-01T01:26:36;9.63;;;6.60;;
8247;SDS011;4164;49.844;8.830;2023-02-01T01:29:01;11.37;;;7.30;;
8247;SDS011;4164;49.844;8.830;2023-02-01T01:31:27;8.67;;;5.93;;
8247;SDS011;4164;49.844;8.830;2023-02-01T01:33:54;11.43;;;7.13;;
8247;SDS011;4164;49.844;8.830;2023-02-01T01:36:21;10.67;;;6.93;;
8247;SDS011;4164;49.844;8.830;2023-02-01T01:38:47;11.23;;;6.93;;
8247;SDS011;4164;49.844;8.830;2023-02-01T01:41:14;9.67;;;6.53;;
8247;SDS011;4164;49.844;8.830;2023-02-01T01:46:25;9.30;;;5.93;;
8247;SDS011;4164;49.844;8.830;2023-02-01T01:48:58;16.20;;;6.93;;
8247;SDS011;4164;49.844;8.830;2023-02-01T01:51:30;10.03;;;6.30;;
8247;SDS011;4164;49.844;8.830;2023-02-01T01:54:45;12.90;;;6.33;;
8247;SDS011;4164;49.844;8.830;2023-02-01T01:56:52;9.20;;;6.27;;
8247;SDS011;4164;49.844;8.830;2023-02-01T01:59:22;10.87;;;6.57;;
8247;SDS011;4164;49.844;8.830;2023-02-01T02:01:49;11.93;;;6.50;;
8247;SDS011;4164;49.844;8.830;2023-02-01T02:04:15;10.00;;;6.73;;
8247;SDS011;4164;49.844;8.830;2023-02-01T02:09:16;13.90;;;6.70;;
8247;SDS011;4164;49.844;8.830;2023-02-01T02:11:41;12.43;;;7.37;;
8247;SDS011;4164;49.844;8.830;2023-02-01T02:14:08;11.17;;;6.83;;
8247;SDS011;4164;49.844;8.830;2023-02-01T02:30:41;13.67;;;8.27;;
8247;SDS011;4164;49.844;8.830;2023-02-01T02:36:18;11.73;;;6.87;;
8247;SDS011;4164;49.844;8.830;2023-02-01T02:39:05;12.77;;;6.70;;
8247;SDS011;4164;49.844;8.830;2023-02-01T02:41:44;12.03;;;6.87;;
8247;SDS011;4164;49.844;8.830;2023-02-01T02:53:17;11.10;;;7.83;;
8247;SDS011;4164;49.844;8.830;2023-02-01T02:56:07;9.27;;;7.33;;
8247;SDS011;4164;49.844;8.830;2023-02-01T02:58:53;11.87;;;7.10;;
8247;SDS011;4164;49.844;8.830;2023-02-01T03:01:38;16.57;;;7.17;;
8247;SDS011;4164;49.844;8.830;2023-02-01T03:04:24;13.23;;;7.10;;
8247;SDS011;4164;49.844;8.830;2023-02-01T03:06:51;10.53;;;7.93;;
8247;SDS011;4164;49.844;8.830;2023-02-01T03:09:26;11.30;;;7.80;;
8247;SDS011;4164;49.844;8.830;2023-02-01T03:12:01;12.83;;;7.67;;
8247;SDS011;4164;49.844;8.830;2023-02-01T03:14:51;13.93;;;7.77;;
8247;SDS011;4164;49.844;8.830;2023-02-01T03:17:24;13.63;;;8.03;;
8247;SDS011;4164;49.844;8.830;2023-02-01T03:19:57;12.10;;;7.90;;
8247;SDS011;4164;49.844;8.830;2023-02-01T03:22:26;10.87;;;7.50;;
8247;SDS011;4164;49.844;8.830;2023-02-01T03:24:59;10.47;;;7.20;;
8247;SDS011;4164;49.844;8.830;2023-02-01T03:27:37;7.33;;;6.17;;
8247;SDS011;4164;49.844;8.830;2023-02-01T03:31:04;7.20;;;5.50;;
8247;SDS011;4164;49.844;8.830;2023-02-01T03:33:14;9.67;;;5.23;;
8247;SDS011;4164;49.844;8.830;2023-02-01T03:35:59;6.50;;;5.10;;
8247;SDS011;4164;49.844;8.830;2023-02-01T03:39:14;8.23;;;4.30;;
8247;SDS011;4164;49.844;8.830;2023-02-01T03:41:27;5.13;;;3.30;;
8247;SDS011;4164;49.844;8.830;2023-02-01T03:46:52;4.57;;;3.87;;
8247;SDS011;4164;49.844;8.830;2023-02-01T03:49:27;7.10;;;5.07;;
8247;SDS011;4164;49.844;8.830;2023-02-01T03:51:54;5.93;;;3.97;;
8247;SDS011;4164;49.844;8.830;2023-02-01T03:54:21;5.03;;;3.40;;
8247;SDS011;4164;49.844;8.830;2023-02-01T03:56:48;4.23;;;3.23;;
8247;SDS011;4164;49.844;8.830;2023-02-01T03:59:15;5.10;;;3.33;;
8247;SDS011;4164;49.844;8.830;2023-02-01T04:01:41;6.77;;;3.80;;
8247;SDS011;4164;49.844;8.830;2023-02-01T04:04:07;4.73;;;3.70;;
8247;SDS011;4164;49.844;8.830;2023-02-01T04:06:34;6.03;;;4.17;;
8247;SDS011;4164;49.844;8.830;2023-02-01T04:08:59;4.97;;;4.23;;
8247;SDS011;4164;49.844;8.830;2023-02-01T04:11:25;7.63;;;4.47;;
8247;SDS011;4164;49.844;8.830;2023-02-01T04:13:52;7.00;;;4.53;;
8247;SDS011;4164;49.844;8.830;2023-02-01T04:16:18;7.83;;;4.93;;
8247;SDS011;4164;49.844;8.830;2023-02-01T04:18:43;6.67;;;3.90;;
8247;SDS011;4164;49.844;8.830;2023-02-01T04:21:09;6.60;;;4.17;;
8247;SDS011;4164;49.844;8.830;2023-02-01T04:23:34;6.53;;;4.67;;
8247;SDS011;4164;49.844;8.830;2023-02-01T04:26:02;8.87;;;4.33;;
8247;SDS011;4164;49.844;8.830;2023-02-01T04:28:29;10.40;;;4.57;;
8247;SDS011;4164;49.844;8.830;2023-02-01T04:30:54;6.87;;;4.57;;
8247;SDS011;4164;49.844;8.830;2023-02-01T04:33:20;10.73;;;5.00;;
8247;SDS011;4164;49.844;8.830;2023-02-01T04:35:46;6.57;;;4.67;;
8247;SDS011;4164;49.844;8.830;2023-02-01T04:38:12;9.07;;;4.43;;
8247;SDS011;4164;49.844;8.830;2023-02-01T04:40:37;10.77;;;5.77;;
8247;SDS011;4164;49.844;8.830;2023-02-01T04:43:03;8.60;;;4.90;;
8247;SDS011;4164;49.844;8.830;2023-02-01T04:45:29;9.20;;;5.00;;
8247;SDS011;4164;49.844;8.830;2023-02-01T04:47:55;11.57;;;5.50;;
8247;SDS011;4164;49.844;8.830;2023-02-01T04:50:20;10.00;;;4.93;;
8247;SDS011;4164;49.844;8.830;2023-02-01T04:52:46;9.00;;;5.37;;
8247;SDS011;4164;49.844;8.830;2023-02-01T04:55:12;8.00;;;5.50;;
8247;SDS011;4164;49.844;8.830;2023-02-01T04:57:38;10.90;;;5.53;;
8247;SDS011;4164;49.844;8.830;2023-02-01T05:00:05;11.77;;;5.40;;
8247;SDS011;4164;49.844;8.830;2023-02-01T05:02:32;8.07;;;4.87;;
8247;SDS011;4164;49.844;8.830;2023-02-01T05:04:57;7.43;;;4.33;;
8247;SDS011;4164;49.844;8.830;2023-02-01T05:07:23;6.33;;;4.37;;
8247;SDS011;4164;49.844;8.830;2023-02-01T05:09:49;7.67;;;4.87;;
8247;SDS011;4164;49.844;8.830;2023-02-01T05:12:14;11.50;;;4.57;;
8247;SDS011;4164;49.844;8.830;2023-02-01T05:14:58;6.90;;;3.93;;
8247;SDS011;4164;49.844;8.830;2023-02-01T05:17:24;5.23;;;3.63;;
8247;SDS011;4164;49.844;8.830;2023-02-01T05:19:49;8.43;;;4.13;;
8247;SDS011;4164;49.844;8.830;2023-02-01T05:22:15;7.80;;;2.93;;
8247;SDS011;4164;49.844;8.830;2023-02-01T05:24:40;8.23;;;3.83;;
8247;SDS011;4164;49.844;8.830;2023-02-01T05:27:06;8.67;;;3.57;;
8247;SDS011;4164;49.844;8.830;2023-02-01T05:29:31;4.77;;;2.60;;
8247;SDS011;4164;49.844;8.830;2023-02-01T05:31:57;8.33;;;3.03;;
8247;SDS011;4164;49.844;8.830;2023-02-01T05:34:22;8.40;;;3.13;;
8247;SDS011;4164;49.844;8.830;2023-02-01T05:36:48;8.83;;;3.40;;
8247;SDS011;4164;49.844;8.830;2023-02-01T05:39:13;6.83;;;3.10;;
8247;SDS011;4164;49.844;8.830;2023-02-01T05:41:39;8.73;;;3.13;;
8247;SDS011;4164;49.844;8.830;2023-02-01T05:44:05;9.70;;;3.53;;
8247;SDS011;4164;49.844;8.830;2023-02-01T05:46:32;10.47;;;3.43;;
8247;SDS011;4164;49.844;8.830;2023-02-01T05:48:58;9.97;;;3.60;;
8247;SDS011;4164;49.844;8.830;2023-02-01T05:51:24;7.43;;;3.10;;
8247;SDS011;4164;49.844;8.830;2023-02-01T05:53:49;11.07;;;3.57;;
8247;SDS011;4164;49.844;8.830;2023-02-01T05:56:15;9.00;;;3.90;;
8247;SDS011;4164;49.844;8.830;2023-02-01T05:58:40;10.33;;;2.97;;
8247;SDS011;4164;49.844;8.830;2023-02-01T06:01:06;7.53;;;2.90;;
8247;SDS011;4164;49.844;8.830;2023-02-01T06:03:32;4.90;;;2.07;;
8247;SDS011;4164;49.844;8.830;2023-02-01T06:05:57;5.10;;;2.43;;
8247;SDS011;4164;49.844;8.830;2023-02-01T06:08:23;5.83;;;2.13;;
8247;SDS011;4164;49.844;8.830;2023-02-01T06:10:50;9.53;;;2.67;;
8247;SDS011;4164;49.844;8.830;2023-02-01T06:13:22;4.73;;;2.40;;
8247;SDS011;4164;49.844;8.830;2023-02-01T06:15:47;6.30;;;2.20;;
8247;SDS011;4164;49.844;8.830;2023-02-01T06:18:13;5.30;;;2.17;;
8247;SDS011;4164;49.844;8.830;2023-02-01T06:20:40;4.00;;;2.10;;
8247;SDS011;4164;49.844;8.830;2023-02-01T06:23:06;3.60;;;2.30;;
8247;SDS011;4164;49.844;8.830;2023-02-01T06:25:31;3.70;;;2.13;;
8247;SDS011;4164;49.844;8.830;2023-02-01T06:27:59;6.23;;;2.30;;
8247;SDS011;4164;49.844;8.830;2023-02-01T06:30:25;7.07;;;2.30;;
8247;SDS011;4164;49.844;8.830;2023-02-01T06:32:51;4.03;;;2.30;;
8247;SDS011;4164;49.844;8.830;2023-02-01T06:35:20;8.53;;;2.30;;
8247;SDS011;4164;49.844;8.830;2023-02-01T06:37:45;5.97;;;2.33;;
8247;SDS011;4164;49.844;8.830;2023-02-01T06:40:11;5.60;;;2.00;;
8247;SDS011;4164;49.844;8.830;2023-02-01T06:42:37;6.63;;;1.87;;
8247;SDS011;4164;49.844;8.830;2023-02-01T06:45:02;6.23;;;2.50;;
8247;SDS011;4164;49.844;8.830;2023-02-01T06:47:28;4.60;;;2.27;;
8247;SDS011;4164;49.844;8.830;2023-02-01T06:49:54;3.67;;;2.20;;
8247;SDS011;4164;49.844;8.830;2023-02-01T06:52:19;10.23;;;2.77;;
8247;SDS011;4164;49.844;8.830;2023-02-01T06:54:45;4.80;;;2.30;;
8247;SDS011;4164;49.844;8.830;2023-02-01T06:57:10;6.60;;;2.73;;
8247;SDS011;4164;49.844;8.830;2023-02-01T06:59:36;13.13;;;5.00;;
8247;SDS011;4164;49.844;8.830;2023-02-01T07:02:02;5.63;;;2.73;;
8247;SDS011;4164;49.844;8.830;2023-02-01T07:04:27;6.20;;;3.23;;
8247;SDS011;4164;49.844;8.830;2023-02-01T07:06:53;7.63;;;3.30;;
8247;SDS011;4164;49.844;8.830;2023-02-01T07:09:18;10.20;;;3.03;;
8247;SDS011;4164;49.844;8.830;2023-02-01T07:11:44;8.73;;;3.10;;
8247;SDS011;4164;49.844;8.830;2023-02-01T07:14:10;5.77;;;2.40;;
8247;SDS011;4164;49.844;8.830;2023-02-01T07:16:36;8.67;;;3.10;;
8247;SDS011;4164;49.844;8.830;2023-02-01T07:19:02;5.67;;;2.70;;
8247;SDS011;4164;49.844;8.830;2023-02-01T07:21:27;8.70;;;2.53;;
8247;SDS011;4164;49.844;8.830;2023-02-01T07:23:54;6.73;;;2.50;;
8247;SDS011;4164;49.844;8.830;2023-02-01T07:26:20;5.43;;;2.80;;
8247;SDS011;4164;49.844;8.830;2023-02-01T07:28:46;9.60;;;2.73;;
8247;SDS011;4164;49.844;8.830;2023-02-01T07:31:13;5.43;;;2.30;;
8247;SDS011;4164;49.844;8.830;2023-02-01T07:33:47;6.63;;;3.20;;
8247;SDS011;4164;49.844;8.830;2023-02-01T07:36:16;4.40;;;2.30;;
8247;SDS011;4164;49.844;8.830;2023-02-01T07:38:42;6.10;;;3.57;;
8247;SDS011;4164;49.844;8.830;2023-02-01T07:41:08;9.53;;;3.27;;
8247;SDS011;4164;49.844;8.830;2023-02-01T07:43:34;5.80;;;3.40;;
8247;SDS011;4164;49.844;8.830;2023-02-01T07:46:00;6.87;;;3.83;;
8247;SDS011;4164;49.844;8.830;2023-02-01T07:48:27;6.90;;;2.97;;
8247;SDS011;4164;49.844;8.830;2023-02-01T07:50:57;12.10;;;3.33;;
8247;SDS011;4164;49.844;8.830;2023-02-01T07:53:28;9.43;;;2.90;;
8247;SDS011;4164;49.844;8.830;2023-02-01T07:55:54;7.80;;;3.13;;
8247;SDS011;4164;49.844;8.830;2023-02-01T07:58:21;11.43;;;3.67;;
8247;SDS011;4164;49.844;8.830;2023-02-01T08:00:47;12.20;;;3.50;;
8247;SDS011;4164;49.844;8.830;2023-02-01T08:03:31;13.23;;;3.70;;
8247;SDS011;4164;49.844;8.830;2023-02-01T08:05:56;11.70;;;3.80;;
8247;SDS011;4164;49.844;8.830;2023-02-01T08:08:22;8.43;;;3.40;;
8247;SDS011;4164;49.844;8.830;2023-02-01T08:10:48;13.87;;;3.57;;
8247;SDS011;4164;49.844;8.830;2023-02-01T08:13:14;12.20;;;3.60;;
8247;SDS011;4164;49.844;8.830;2023-02-01T08:15:40;13.47;;;3.33;;
8247;SDS011;4164;49.844;8.830;2023-02-01T08:18:05;11.77;;;4.97;;
8247;SDS011;4164;49.844;8.830;2023-02-01T08:20:31;20.50;;;3.80;;
8247;SDS011;4164;49.844;8.830;2023-02-01T08:22:59;7.53;;;2.90;;
8247;SDS011;4164;49.844;8.830;2023-02-01T08:25:25;12.73;;;3.87;;
8247;SDS011;4164;49.844;8.830;2023-02-01T08:27:50;11.07;;;3.00;;
8247;SDS011;4164;49.844;8.830;2023-02-01T08:30:16;11.47;;;2.53;;
8247;SDS011;4164;49.844;8.830;2023-02-01T08:32:42;7.37;;;2.43;;
8247;SDS011;4164;49.844;8.830;2023-02-01T08:35:07;11.33;;;3.10;;
8247;SDS011;4164;49.844;8.830;2023-02-01T08:37:33;13.17;;;3.60;;
8247;SDS011;4164;49.844;8.830;2023-02-01T08:39:59;16.00;;;3.37;;
8247;SDS011;4164;49.844;8.830;2023-02-01T08:42:25;10.30;;;2.90;;
8247;SDS011;4164;49.844;8.830;2023-02-01T08:45:09;11.63;;;2.87;;
8247;SDS011;4164;49.844;8.830;2023-02-01T08:47:35;6.97;;;2.43;;
8247;SDS011;4164;49.844;8.830;2023-02-01T08:50:00;9.10;;;3.23;;
8247;SDS011;4164;49.844;8.830;2023-02-01T08:52:26;10.30;;;3.07;;
8247;SDS011;4164;49.844;8.830;2023-02-01T08:54:52;10.30;;;2.93;;
8247;SDS011;4164;49.844;8.830;2023-02-01T08:57:18;10.87;;;3.27;;
8247;SDS011;4164;49.844;8.830;2023-02-01T08:59:43;8.83;;;2.63;;
8247;SDS011;4164;49.844;8.830;2023-02-01T09:02:13;11.20;;;3.00;;
8247;SDS011;4164;49.844;8.830;2023-02-01T09:04:40;7.83;;;2.97;;
8247;SDS011;4164;49.844;8.830;2023-02-01T09:07:06;10.23;;;2.50;;
8247;SDS011;4164;49.844;8.830;2023-02-01T09:09:35;14.67;;;2.93;;
8247;SDS011;4164;49.844;8.830;2023-02-01T09:12:02;9.33;;;2.70;;
8247;SDS011;4164;49.844;8.830;2023-02-01T09:14:28;8.73;;;2.87;;
8247;SDS011;4164;49.844;8.830;2023-02-01T09:16:53;10.43;;;3.20;;
8247;SDS011;4164;49.844;8.830;2023-02-01T09:19:19;8.80;;;2.30;;
8247;SDS011;4164;49.844;8.830;2023-02-01T09:21:45;8.60;;;2.67;;
8247;SDS011;4164;49.844;8.830;2023-02-01T09:24:10;7.33;;;2.50;;
8247;SDS011;4164;49.844;8.830;2023-02-01T09:26:36;13.93;;;2.83;;
8247;SDS011;4164;49.844;8.830;2023-02-01T09:29:02;8.17;;;2.37;;
8247;SDS011;4164;49.844;8.830;2023-02-01T09:31:29;8.40;;;2.70;;
8247;SDS011;4164;49.844;8.830;2023-02-01T09:33:55;9.13;;;3.27;;
8247;SDS011;4164;49.844;8.830;2023-02-01T09:36:21;11.93;;;3.00;;
8247;SDS011;4164;49.844;8.830;2023-02-01T09:38:48;13.67;;;3.13;;
8247;SDS011;4164;49.844;8.830;2023-02-01T09:41:38;10.47;;;2.70;;
8247;SDS011;4164;49.844;8.830;2023-02-01T09:47:10;8.40;;;3.07;;
8247;SDS011;4164;49.844;8.830;2023-02-01T09:49:39;10.87;;;2.70;;
8247;SDS011;4164;49.844;8.830;2023-02-01T09:52:32;13.30;;;2.83;;
8247;SDS011;4164;49.844;8.830;2023-02-01T09:55:06;13.93;;;3.20;;
8247;SDS011;4164;49.844;8.830;2023-02-01T09:57:49;9.53;;;2.87;;
8247;SDS011;4164;49.844;8.830;2023-02-01T10:00:26;16.63;;;3.20;;
8247;SDS011;4164;49.844;8.830;2023-02-01T10:02:59;5.80;;;2.67;;
8247;SDS011;4164;49.844;8.830;2023-02-01T10:05:30;8.57;;;3.37;;
8247;SDS011;4164;49.844;8.830;2023-02-01T10:10:49;11.83;;;3.00;;
8247;SDS011;4164;49.844;8.830;2023-02-01T10:15:46;12.40;;;2.90;;
8247;SDS011;4164;49.844;8.830;2023-02-01T10:26:36;14.13;;;2.77;;
8247;SDS011;4164;49.844;8.830;2023-02-01T10:29:10;9.07;;;3.03;;
8247;SDS011;4164;49.844;8.830;2023-02-01T10:31:41;8.90;;;2.93;;
8247;SDS011;4164;49.844;8.830;2023-02-01T10:34:15;9.30;;;3.00;;
8247;SDS011;4164;49.844;8.830;2023-02-01T10:39:33;6.83;;;2.00;;
8247;SDS011;4164;49.844;8.830;2023-02-01T10:41:58;12.13;;;2.23;;
8247;SDS011;4164;49.844;8.830;2023-02-01T10:44:28;6.43;;;2.10;;
8247;SDS011;4164;49.844;8.830;2023-02-01T10:46:55;7.60;;;2.13;;
8247;SDS011;4164;49.844;8.830;2023-02-01T10:49:24;7.23;;;2.00;;
8247;SDS011;4164;49.844;8.830;2023-02-01T10:52:18;10.83;;;2.77;;
8247;SDS011;4164;49.844;8.830;2023-02-01T10:54:46;12.33;;;4.03;;
8247;SDS011;4164;49.844;8.830;2023-02-01T10:57:22;10.33;;;2.70;;
8247;SDS011;4164;49.844;8.830;2023-02-01T10:59:50;9.47;;;2.20;;
8247;SDS011;4164;49.844;8.830;2023-02-01T11:04:47;9.70;;;2.90;;
8247;SDS011;4164;49.844;8.830;2023-02-01T11:07:20;11.30;;;2.33;;
8247;SDS011;4164;49.844;8.830;2023-02-01T11:09:50;7.97;;;2.50;;
8247;SDS011;4164;49.844;8.830;2023-02-01T11:12:53;8.33;;;3.17;;
8247;SDS011;4164;49.844;8.830;2023-02-01T11:15:18;11.00;;;2.33;;
8247;SDS011;4164;49.844;8.830;2023-02-01T11:17:47;5.77;;;1.90;;
8247;SDS011;4164;49.844;8.830;2023-02-01T11:20:21;9.97;;;3.57;;
8247;SDS011;4164;49.844;8.830;2023-02-01T11:22:56;11.50;;;2.83;;
8247;SDS011;4164;49.844;8.830;2023-02-01T11:25:22;7.93;;;2.33;;
8247;SDS011;4164;49.844;8.830;2023-02-01T11:27:49;11.63;;;2.47;;
8247;SDS011;4164;49.844;8.830;2023-02-01T11:30:18;4.67;;;2.33;;
8247;SDS011;4164;49.844;8.830;2023-02-01T11:32:51;9.67;;;2.63;;
8247;SDS011;4164;49.844;8.830;2023-02-01T11:35:20;10.83;;;2.73;;
8247;SDS011;4164;49.844;8.830;2023-02-01T11:37:54;10.30;;;2.43;;
8247;SDS011;4164;49.844;8.830;2023-02-01T11:40:36;11.43;;;2.60;;
8247;SDS011;4164;49.844;8.830;2023-02-01T11:45:55;8.83;;;2.20;;
8247;SDS011;4164;49.844;8.830;2023-02-01T11:48:29;11.67;;;2.07;;
8247;SDS011;4164;49.844;8.830;2023-02-01T12:02:57;8.30;;;2.50;;
8247;SDS011;4164;49.844;8.830;2023-02-01T12:08:32;8.03;;;2.43;;
8247;SDS011;4164;49.844;8.830;2023-02-01T12:22:02;10.73;;;3.00;;
8247;SDS011;4164;49.844;8.830;2023-02-01T12:30:33;7.40;;;2.10;;
8247;SDS011;4164;49.844;8.830;2023-02-01T12:35:47;9.67;;;1.83;;
8247;SDS011;4164;49.844;8.830;2023-02-01T12:43:40;12.40;;;2.77;;
8247;SDS011;4164;49.844;8.830;2023-02-01T12:46:15;13.53;;;2.57;;
8247;SDS011;4164;49.844;8.830;2023-02-01T12:51:33;8.07;;;3.00;;
8247;SDS011;4164;49.844;8.830;2023-02-01T12:54:11;6.17;;;2.13;;
8247;SDS011;4164;49.844;8.830;2023-02-01T12:56:55;7.70;;;2.47;;
8247;SDS011;4164;49.844;8.830;2023-02-01T13:02:03;6.70;;;2.10;;
8247;SDS011;4164;49.844;8.830;2023-02-01T13:04:46;10.67;;;2.83;;
8247;SDS011;4164;49.844;8.830;2023-02-01T13:07:21;10.20;;;2.87;;
8247;SDS011;4164;49.844;8.830;2023-02-01T13:10:03;7.47;;;2.00;;
8247;SDS011;4164;49.844;8.830;2023-02-01T13:12:36;4.97;;;2.20;;
8247;SDS011;4164;49.844;8.830;2023-02-01T13:17:54;6.47;;;2.20;;
8247;SDS011;4164;49.844;8.830;2023-02-01T13:20:45;12.53;;;2.60;;
8247;SDS011;4164;49.844;8.830;2023-02-01T13:25:52;9.83;;;2.53;;
8247;SDS011;4164;49.844;8.830;2023-02-01T13:28:24;9.00;;;2.47;;
8247;SDS011;4164;49.844;8.830;2023-02-01T13:42:31;10.97;;;2.43;;
8247;SDS011;4164;49.844;8.830;2023-02-01T13:45:32;8.77;;;2.53;;
8247;SDS011;4164;49.844;8.830;2023-02-01T13:48:02;7.37;;;3.00;;
8247;SDS011;4164;49.844;8.830;2023-02-01T13:50:31;7.20;;;2.23;;
8247;SDS011;4164;49.844;8.830;2023-02-01T13:53:48;10.90;;;2.80;;
8247;SDS011;4164;49.844;8.830;2023-02-01T13:55:57;11.93;;;2.60;;
8247;SDS011;4164;49.844;8.830;2023-02-01T13:58:32;10.47;;;2.10;;
8247;SDS011;4164;49.844;8.830;2023-02-01T14:03:57;9.33;;;2.70;;
8247;SDS011;4164;49.844;8.830;2023-02-01T14:16:41;16.03;;;3.40;;
8247;SDS011;4164;49.844;8.830;2023-02-01T14:19:08;14.70;;;4.10;;
8247;SDS011;4164;49.844;8.830;2023-02-01T14:21:58;8.50;;;2.57;;
8247;SDS011;4164;49.844;8.830;2023-02-01T14:24:48;7.80;;;2.23;;
8247;SDS011;4164;49.844;8.830;2023-02-01T14:27:19;14.87;;;2.87;;
8247;SDS011;4164;49.844;8.830;2023-02-01T14:29:51;9.43;;;2.40;;
8247;SDS011;4164;49.844;8.830;2023-02-01T14:32:33;8.07;;;2.43;;
8247;SDS011;4164;49.844;8.830;2023-02-01T14:35:05;12.83;;;2.80;;
8247;SDS011;4164;49.844;8.830;2023-02-01T14:37:36;10.47;;;2.97;;
8247;SDS011;4164;49.844;8.830;2023-02-01T14:47:45;11.93;;;3.00;;
8247;SDS011;4164;49.844;8.830;2023-02-01T14:55:50;8.33;;;2.30;;
8247;SDS011;4164;49.844;8.830;2023-02-01T14:58:24;7.40;;;2.67;;
8247;SDS011;4164;49.844;8.830;2023-02-01T15:01:21;10.80;;;2.77;;
8247;SDS011;4164;49.844;8.830;2023-02-01T15:06:24;8.77;;;2.97;;
8247;SDS011;4164;49.844;8.830;2023-02-01T15:12:12;12.70;;;2.50;;
8247;SDS011;4164;49.844;8.830;2023-02-01T15:17:42;10.40;;;2.73;;
8247;SDS011;4164;49.844;8.830;2023-02-01T15:20:20;11.53;;;2.17;;
8247;SDS011;4164;49.844;8.830;2023-02-01T15:22:54;10.57;;;2.47;;
8247;SDS011;4164;49.844;8.830;2023-02-01T15:25:21;10.43;;;2.00;;
8247;SDS011;4164;49.844;8.830;2023-02-01T15:27:49;7.63;;;2.40;;
8247;SDS011;4164;49.844;8.830;2023-02-01T15:30:19;7.53;;;2.40;;
8247;SDS011;4164;49.844;8.830;2023-02-01T15:32:47;9.13;;;2.47;;
8247;SDS011;4164;49.844;8.830;2023-02-01T15:43:24;10.53;;;2.73;;
8247;SDS011;4164;49.844;8.830;2023-02-01T15:45:51;8.20;;;1.90;;
8247;SDS011;4164;49.844;8.830;2023-02-01T15:48:22;6.53;;;2.00;;
8247;SDS011;4164;49.844;8.830;2023-02-01T15:50:52;6.43;;;2.43;;
8247;SDS011;4164;49.844;8.830;2023-02-01T15:53:20;7.63;;;1.70;;
8247;SDS011;4164;49.844;8.830;2023-02-01T15:55:51;9.27;;;2.30;;
8247;SDS011;4164;49.844;8.830;2023-02-01T15:58:20;9.93;;;2.20;;
8247;SDS011;4164;49.844;8.830;2023-02-01T16:00:52;10.40;;;2.53;;
8247;SDS011;4164;49.844;8.830;2023-02-01T16:05:59;10.73;;;2.27;;
8247;SDS011;4164;49.844;8.830;2023-02-01T16:08:27;7.53;;;1.70;;
8247;SDS011;4164;49.844;8.830;2023-02-01T16:10:54;9.70;;;2.40;;
8247;SDS011;4164;49.844;8.830;2023-02-01T16:13:47;10.40;;;2.67;;
8247;SDS011;4164;49.844;8.830;2023-02-01T16:16:13;11.17;;;2.47;;
8247;SDS011;4164;49.844;8.830;2023-02-01T16:18:39;9.60;;;2.73;;
8247;SDS011;4164;49.844;8.830;2023-02-01T16:21:05;8.33;;;2.40;;
8247;SDS011;4164;49.844;8.830;2023-02-01T16:23:33;12.83;;;2.70;;
8247;SDS011;4164;49.844;8.830;2023-02-01T16:26:00;8.47;;;2.63;;
8247;SDS011;4164;49.844;8.830;2023-02-01T16:28:25;8.60;;;2.37;;
8247;SDS011;4164;49.844;8.830;2023-02-01T16:30:51;13.27;;;2.60;;
8247;SDS011;4164;49.844;8.830;2023-02-01T16:33:18;11.27;;;3.03;;
8247;SDS011;4164;49.844;8.830;2023-02-01T16:35:47;11.27;;;2.90;;
8247;SDS011;4164;49.844;8.830;2023-02-01T16:38:13;8.63;;;2.50;;
8247;SDS011;4164;49.844;8.830;2023-02-01T16:40:43;6.50;;;2.80;;
8247;SDS011;4164;49.844;8.830;2023-02-01T16:45:45;6.80;;;2.80;;
8247;SDS011;4164;49.844;8.830;2023-02-01T16:48:16;13.13;;;2.90;;
8247;SDS011;4164;49.844;8.830;2023-02-01T16:50:46;14.33;;;3.27;;
8247;SDS011;4164;49.844;8.830;2023-02-01T16:53:14;11.23;;;2.70;;
8247;SDS011;4164;49.844;8.830;2023-02-01T16:55:42;8.60;;;2.70;;
8247;SDS011;4164;49.844;8.830;2023-02-01T16:58:08;10.43;;;2.10;;
8247;SDS011;4164;49.844;8.830;2023-02-01T17:00:34;13.07;;;3.23;;
8247;SDS011;4164;49.844;8.830;2023-02-01T17:03:02;8.70;;;2.27;;
8247;SDS011;4164;49.844;8.830;2023-02-01T17:05:28;14.30;;;3.30;;
8247;SDS011;4164;49.844;8.830;2023-02-01T17:07:54;15.53;;;3.97;;
8247;SDS011;4164;49.844;8.830;2023-02-01T17:10:24;15.73;;;3.20;;
8247;SDS011;4164;49.844;8.830;2023-02-01T17:12:51;14.40;;;3.07;;
8247;SDS011;4164;49.844;8.830;2023-02-01T17:15:17;14.23;;;3.97;;
8247;SDS011;4164;49.844;8.830;2023-02-01T17:17:42;10.53;;;3.07;;
8247;SDS011;4164;49.844;8.830;2023-02-01T17:20:10;10.03;;;3.03;;
8247;SDS011;4164;49.844;8.830;2023-02-01T17:22:47;6.97;;;2.93;;
8247;SDS011;4164;49.844;8.830;2023-02-01T17:25:16;9.40;;;2.57;;
8247;SDS011;4164;49.844;8.830;2023-02-01T17:27:43;8.60;;;2.43;;
8247;SDS011;4164;49.844;8.830;2023-02-01T17:30:11;11.73;;;2.63;;
8247;SDS011;4164;49.844;8.830;2023-02-01T17:32:38;9.83;;;2.80;;
8247;SDS011;4164;49.844;8.830;2023-02-01T17:35:05;11.17;;;2.43;;
8247;SDS011;4164;49.844;8.830;2023-02-01T17:37:36;13.73;;;2.87;;
8247;SDS011;4164;49.844;8.830;2023-02-01T17:40:02;10.30;;;2.73;;
8247;SDS011;4164;49.844;8.830;2023-02-01T17:42:28;11.20;;;2.50;;
8247;SDS011;4164;49.844;8.830;2023-02-01T17:44:58;11.03;;;2.90;;
8247;SDS011;4164;49.844;8.830;2023-02-01T17:47:35;9.53;;;3.33;;
8247;SDS011;4164;49.844;8.830;2023-02-01T17:50:02;11.23;;;2.93;;
8247;SDS011;4164;49.844;8.830;2023-02-01T17:52:28;12.30;;;3.03;;
8247;SDS011;4164;49.844;8.830;2023-02-01T17:54:54;9.27;;;2.63;;
8247;SDS011;4164;49.844;8.830;2023-02-01T17:57:19;11.67;;;3.67;;
8247;SDS011;4164;49.844;8.830;2023-02-01T17:59:45;7.47;;;2.00;;
8247;SDS011;4164;49.844;8.830;2023-02-01T18:02:15;13.07;;;2.63;;
8247;SDS011;4164;49.844;8.830;2023-02-01T18:04:45;9.33;;;2.60;;
8247;SDS011;4164;49.844;8.830;2023-02-01T18:07:11;10.30;;;2.87;;
8247;SDS011;4164;49.844;8.830;2023-02-01T18:09:37;14.97;;;4.07;;
8247;SDS011;4164;49.844;8.830;2023-02-01T18:12:03;13.87;;;2.93;;
8247;SDS011;4164;49.844;8.830;2023-02-01T18:14:29;11.57;;;2.50;;